Kelmont East, Nevada
Current Conditions -  °F | °C
As of 5:53 AM on Friday 24 Oct 2014 (Local Time) from KTVL Reporting Station
Clear Clear  
Wind Chill: -1°   Ceiling: Unl
Heat Index: -1°   Visibility: 10mi
Dew Point: -7°   Wind: 0mph
Humidity: 66%   Direction: NA
Pressure: 30.13"   Gusts: NA
Location:  39.0164°N, 119.925°W
Report Text: KTVL 241253Z AUTO 00000KT 10SM CLR M01/M07 A3013 RMK AO2 SLP181 T10111067
Loading
Personal Weather Stations






























Interactive Weather Map
Tropical Storm Tracking
New forecast layout! Learn more

10-Day Weather Forecast

Advertisements
Track Severe Weather on mobile